Aérodrome :
LOGIN :

S'inscrire | Disclaimer

   EN    FR    IT 

 










Légende :    VFR   VFR Marginal   IFR   IFR Intensif   IFR Très Intensif
Visi : 
Plafond : 
>= 8 km
>= 3000ft
5 à 8 km
1000 à 3000 ft
1500m à 5 km
500 à 1000 ft
800 à 1500m
200 à 500 ft
< 800m
< 200 ft
Symboles :   Orages  Brouillard  Fortes neiges  Fortes précipitations  Vent > 20 kt
SIGMETs :   Divers  Orages  Givrage  Turbulence  Onde Orograph.  Cendres Volcan.






- Altitude de l'aérodrome : 309 ft
- Code IATA : FNI


LFTW - Nîmes Garons

DERNIER METAR :
  • 190430Z AUTO 34008KT 300V010 CAVOK 05/M00 Q1012 NOSIG

METARs EXPIRÉS :
  • 190400Z AUTO 33009KT CAVOK 05/M01 Q1012 NOSIG
  • 190330Z AUTO 32008KT 290V350 CAVOK 05/M01 Q1012 NOSIG
  • 190300Z AUTO 34013KT CAVOK 06/M01 Q1012 NOSIG
  • 190230Z AUTO 34013KT 310V010 CAVOK 06/M01 Q1012 NOSIG
  • 190200Z AUTO 33008KT 300V360 CAVOK 05/M01 Q1013

TAF TAF LFTW
Valide du 19 à 03h jusqu'au 20 à 03h UTC


190200Z 1903/2003 33008KT CAVOK



MET'MAP, la Météo Aéronautique d'un coup d'oeil ! - Copyright ORBIFLY Décembre 2007 - Disclaimer

ORBIFLY MET'MAP TEAM :

Programmation & Développement : Alexandra Zaïnal
Conception & Développement : Baudouin d'Aumeries
Co-Programmation & Développement : Marc-Olivier Méhu
Soutien technique & logistique : Manuel Goepfert

Contact : metmap@orbifly.com




SOURCES & CREDITS :

   NOAA